createdAt,value
2018-08-09T00:00:30.109Z,13.00
2018-08-09T00:02:58.185Z,12.30
2018-08-09T00:05:26.457Z,13.73
2018-08-09T00:07:54.199Z,12.97
2018-08-09T00:10:22.202Z,12.03
2018-08-09T00:12:50.580Z,12.53
2018-08-09T00:15:18.956Z,11.90
2018-08-09T00:17:47.235Z,11.87
2018-08-09T00:20:15.505Z,11.50
2018-08-09T00:22:43.773Z,12.50
2018-08-09T00:25:12.086Z,12.97
2018-08-09T00:27:40.327Z,11.13
2018-08-09T00:30:08.398Z,11.23
2018-08-09T00:32:36.677Z,11.93
2018-08-09T00:35:04.854Z,12.00
2018-08-09T00:37:33.087Z,13.17
2018-08-09T00:40:01.207Z,12.30
2018-08-09T00:42:29.362Z,11.80
2018-08-09T00:44:57.641Z,12.27
2018-08-09T00:47:25.822Z,12.33
2018-08-09T00:49:53.890Z,11.87
2018-08-09T00:52:22.079Z,12.70
2018-08-09T00:54:50.226Z,11.90
2018-08-09T00:57:18.309Z,12.17
2018-08-09T00:59:46.486Z,12.73
2018-08-09T01:02:14.758Z,11.97
2018-08-09T01:04:42.921Z,11.77
2018-08-09T01:07:11.096Z,12.50
2018-08-09T01:09:39.277Z,11.07
2018-08-09T01:12:07.550Z,10.30
2018-08-09T01:14:35.830Z,11.27
2018-08-09T01:17:03.961Z,11.00
2018-08-09T01:19:32.291Z,12.73
2018-08-09T01:22:00.546Z,11.30
2018-08-09T01:24:28.728Z,11.10
2018-08-09T01:26:56.997Z,11.07
2018-08-09T01:29:25.221Z,11.67
2018-08-09T01:31:53.339Z,11.20
2018-08-09T01:34:21.518Z,11.07
2018-08-09T01:36:49.689Z,11.43
2018-08-09T01:39:17.966Z,11.20
2018-08-09T01:41:56.886Z,11.30
2018-08-09T01:44:24.963Z,11.17
2018-08-09T01:46:53.121Z,11.73
2018-08-09T01:49:21.211Z,11.13
2018-08-09T01:51:49.386Z,10.67
2018-08-09T01:54:17.555Z,11.50
2018-08-09T01:56:45.921Z,12.27
2018-08-09T01:59:14.149Z,11.33
2018-08-09T02:01:42.261Z,13.53
2018-08-09T02:04:10.334Z,11.53
2018-08-09T02:06:38.522Z,11.33
2018-08-09T02:09:08.577Z,12.17
2018-08-09T02:11:36.912Z,12.43
2018-08-09T02:14:05.190Z,10.50
2018-08-09T02:16:33.362Z,11.43
2018-08-09T02:19:01.521Z,12.83
2018-08-09T02:21:29.804Z,12.57
2018-08-09T02:23:57.978Z,11.27
2018-08-09T02:26:25.698Z,14.43
2018-08-09T02:28:53.913Z,12.87
2018-08-09T02:31:22.093Z,13.90
2018-08-09T02:33:50.031Z,13.27
2018-08-09T02:36:18.138Z,13.23
2018-08-09T02:38:46.405Z,11.67
2018-08-09T02:41:14.583Z,12.87
2018-08-09T02:43:42.632Z,11.87
2018-08-09T02:46:10.926Z,11.53
2018-08-09T02:48:39.102Z,11.77
2018-08-09T02:51:07.139Z,11.50
2018-08-09T02:53:35.233Z,14.47
2018-08-09T02:56:03.414Z,12.07
2018-08-09T02:58:31.481Z,13.57
2018-08-09T03:00:59.657Z,13.33
2018-08-09T03:03:27.831Z,11.17
2018-08-09T03:05:55.997Z,10.77
2018-08-09T03:08:24.074Z,11.77
2018-08-09T03:10:52.146Z,10.70
2018-08-09T03:13:19.878Z,12.43
2018-08-09T03:15:48.073Z,12.03
2018-08-09T03:18:16.149Z,13.47
2018-08-09T03:20:44.113Z,11.23
2018-08-09T03:23:12.173Z,12.83
2018-08-09T03:25:40.367Z,11.60
2018-08-09T03:28:08.625Z,11.93
2018-08-09T03:30:36.614Z,11.90
2018-08-09T03:33:04.783Z,13.47
2018-08-09T03:35:32.955Z,13.60
2018-08-09T03:38:01.234Z,12.00
2018-08-09T03:40:29.506Z,11.50
2018-08-09T03:42:57.778Z,12.70
2018-08-09T03:45:26.045Z,16.47
2018-08-09T03:47:54.123Z,12.00
2018-08-09T03:50:22.401Z,11.60
2018-08-09T03:52:50.667Z,11.27
2018-08-09T03:55:18.742Z,12.43
2018-08-09T03:57:46.926Z,11.47
2018-08-09T04:00:14.881Z,11.97
2018-08-09T04:02:43.061Z,12.50
2018-08-09T04:05:11.437Z,13.43
2018-08-09T04:07:39.947Z,12.53
2018-08-09T04:10:08.402Z,17.93
2018-08-09T04:12:36.574Z,13.00
2018-08-09T04:15:06.335Z,13.80
2018-08-09T04:17:34.353Z,19.00
2018-08-09T04:20:02.623Z,16.70
2018-08-09T04:22:31.002Z,22.13
2018-08-09T04:24:59.998Z,19.37
2018-08-09T04:27:28.274Z,60.03
2018-08-09T04:29:56.434Z,23.40
2018-08-09T04:32:24.623Z,25.33
2018-08-09T04:34:52.794Z,104.30
2018-08-09T04:37:20.534Z,23.13
2018-08-09T04:39:48.269Z,17.23
2018-08-09T04:42:16.003Z,12.83
2018-08-09T04:44:43.747Z,13.87
2018-08-09T04:47:11.540Z,12.03
2018-08-09T04:49:39.282Z,15.83
2018-08-09T04:52:07.085Z,18.87
2018-08-09T04:54:34.825Z,18.20
2018-08-09T04:57:02.541Z,15.90
2018-08-09T04:59:30.242Z,14.03
2018-08-09T05:01:58.006Z,14.53
2018-08-09T05:04:26.188Z,13.60
2018-08-09T05:06:54.326Z,12.37
2018-08-09T05:09:22.095Z,12.80
2018-08-09T05:11:49.953Z,15.47
2018-08-09T05:14:18.134Z,13.07
2018-08-09T05:16:46.205Z,10.47
2018-08-09T05:19:14.477Z,10.20
2018-08-09T05:21:42.757Z,11.73
2018-08-09T05:24:11.018Z,11.37
2018-08-09T05:26:39.441Z,16.17
2018-08-09T05:29:07.677Z,11.63
2018-08-09T05:31:35.850Z,10.40
2018-08-09T05:34:04.155Z,13.40
2018-08-09T05:36:32.500Z,15.70
2018-08-09T05:39:00.778Z,11.60
2018-08-09T05:41:28.545Z,10.17
2018-08-09T05:43:56.731Z,6.97
2018-08-09T05:46:24.885Z,8.37
2018-08-09T05:48:53.082Z,8.13
2018-08-09T05:51:21.246Z,8.10
2018-08-09T05:53:49.518Z,8.30
2018-08-09T05:56:17.573Z,7.23
2018-08-09T05:58:45.753Z,6.53
2018-08-09T06:01:13.820Z,5.57
2018-08-09T06:03:42.281Z,8.10
2018-08-09T06:06:10.477Z,6.80
2018-08-09T06:08:38.554Z,7.30
2018-08-09T06:11:06.705Z,7.63
2018-08-09T06:13:34.834Z,8.50
2018-08-09T06:16:03.169Z,6.57
2018-08-09T06:18:31.556Z,4.43
2018-08-09T06:20:59.735Z,5.00
2018-08-09T06:23:27.884Z,7.27
2018-08-09T06:25:56.164Z,8.70
2018-08-09T06:28:23.994Z,6.23
2018-08-09T06:30:52.106Z,8.93
2018-08-09T06:33:20.517Z,7.20
2018-08-09T06:35:48.653Z,6.07
2018-08-09T06:38:17.046Z,7.60
2018-08-09T06:40:45.205Z,6.93
2018-08-09T06:43:13.498Z,7.77
2018-08-09T06:45:41.870Z,7.17
2018-08-09T06:48:10.142Z,6.87
2018-08-09T06:50:38.409Z,5.97
2018-08-09T06:53:06.506Z,5.23
2018-08-09T06:55:34.764Z,8.27
2018-08-09T06:58:02.921Z,7.73
2018-08-09T07:00:31.006Z,5.90
2018-08-09T07:02:59.388Z,6.60
2018-08-09T07:05:27.450Z,5.47
2018-08-09T07:07:55.629Z,4.23
2018-08-09T07:10:23.910Z,4.17
2018-08-09T07:12:52.333Z,4.77
2018-08-09T07:15:20.662Z,7.40
2018-08-09T07:17:48.924Z,5.23
2018-08-09T07:20:17.145Z,5.50
2018-08-09T07:22:45.476Z,8.20
2018-08-09T07:25:13.626Z,24.13
2018-08-09T07:27:41.739Z,5.27
2018-08-09T07:30:11.233Z,10.83
2018-08-09T07:32:39.550Z,6.80
2018-08-09T07:35:08.550Z,7.03
2018-08-09T07:37:36.787Z,14.20
2018-08-09T07:40:06.108Z,5.97
2018-08-09T07:42:34.345Z,8.00
2018-08-09T07:45:02.731Z,8.13
2018-08-09T07:47:30.904Z,7.97
2018-08-09T07:49:58.621Z,10.63
2018-08-09T07:52:26.386Z,15.37
2018-08-09T07:54:54.098Z,9.00
2018-08-09T07:57:21.861Z,6.37
2018-08-09T07:59:49.591Z,8.77
2018-08-09T08:02:17.326Z,6.23
2018-08-09T08:04:45.062Z,9.70
2018-08-09T08:07:12.854Z,7.97
2018-08-09T08:09:40.590Z,10.90
2018-08-09T08:12:08.597Z,7.10
2018-08-09T08:14:36.315Z,4.70
2018-08-09T08:17:04.076Z,7.53
2018-08-09T08:19:31.825Z,7.57
2018-08-09T08:21:59.585Z,7.50
2018-08-09T08:24:27.303Z,6.40
2018-08-09T08:26:55.181Z,6.93
2018-08-09T08:29:22.922Z,10.57
2018-08-09T08:31:51.323Z,8.00
2018-08-09T08:34:19.057Z,4.83
2018-08-09T08:36:46.793Z,9.23
2018-08-09T08:39:14.521Z,8.73
2018-08-09T08:41:42.386Z,7.03
2018-08-09T08:44:10.050Z,4.67
2018-08-09T08:46:37.798Z,6.90
2018-08-09T08:49:06.570Z,11.47
2018-08-09T08:51:34.293Z,5.40
2018-08-09T08:54:02.053Z,6.70
2018-08-09T08:56:29.802Z,7.60
2018-08-09T08:58:57.582Z,9.43
2018-08-09T09:01:25.388Z,9.20
2018-08-09T09:03:53.272Z,7.90
2018-08-09T09:06:21.090Z,11.20
2018-08-09T09:08:48.895Z,10.93
2018-08-09T09:11:16.629Z,12.00
2018-08-09T09:13:44.375Z,13.23
2018-08-09T09:16:12.198Z,41.67
2018-08-09T09:18:39.947Z,64.57
2018-08-09T09:21:07.797Z,76.80
2018-08-09T09:23:36.032Z,25.40
2018-08-09T09:26:03.837Z,55.60
2018-08-09T09:28:31.556Z,75.90
2018-08-09T09:30:59.305Z,82.17
2018-08-09T09:33:27.089Z,18.57
2018-08-09T09:35:54.841Z,5.73
2018-08-09T09:38:22.613Z,18.83
2018-08-09T09:40:50.341Z,43.70
2018-08-09T09:43:18.086Z,11.57
2018-08-09T09:45:45.923Z,6.20
2018-08-09T09:48:13.709Z,8.40
2018-08-09T09:50:41.466Z,11.63
2018-08-09T09:53:09.181Z,11.70
2018-08-09T09:55:37.549Z,10.37
2018-08-09T09:58:05.850Z,10.60
2018-08-09T10:00:39.413Z,8.00
2018-08-09T10:03:07.412Z,38.37
2018-08-09T10:05:35.142Z,15.13
2018-08-09T10:08:02.889Z,15.27
2018-08-09T10:10:30.621Z,6.63
2018-08-09T10:12:58.357Z,7.03
2018-08-09T10:15:26.090Z,9.43
2018-08-09T10:17:53.930Z,7.70
2018-08-09T10:20:21.722Z,6.73
2018-08-09T10:22:49.450Z,5.50
2018-08-09T10:25:17.212Z,6.53
2018-08-09T10:27:45.026Z,5.87
2018-08-09T10:30:12.785Z,12.80
2018-08-09T10:32:40.511Z,7.63
2018-08-09T10:35:08.342Z,7.37
2018-08-09T10:37:36.085Z,9.00
2018-08-09T10:40:04.082Z,10.27
2018-08-09T10:42:31.793Z,6.30
2018-08-09T10:44:59.524Z,4.10
2018-08-09T10:47:27.283Z,5.47
2018-08-09T10:49:55.056Z,5.90
2018-08-09T10:52:22.788Z,5.53
2018-08-09T10:54:51.242Z,5.03
2018-08-09T10:57:19.124Z,7.73
2018-08-09T10:59:46.850Z,6.17
2018-08-09T11:02:14.642Z,6.10
2018-08-09T11:04:42.382Z,6.90
2018-08-09T11:07:10.149Z,4.50
2018-08-09T11:09:37.875Z,6.47
2018-08-09T11:12:05.639Z,7.60
2018-08-09T11:14:33.442Z,6.23
2018-08-09T11:17:01.194Z,4.90
2018-08-09T11:19:28.930Z,6.67
2018-08-09T11:21:56.733Z,4.90
2018-08-09T11:24:24.466Z,4.17
2018-08-09T11:26:52.198Z,6.17
2018-08-09T11:29:19.962Z,14.13
2018-08-09T11:31:47.681Z,7.63
2018-08-09T11:34:15.401Z,7.53
2018-08-09T11:36:43.518Z,8.13
2018-08-09T11:39:12.243Z,8.67
2018-08-09T11:41:40.009Z,7.00
2018-08-09T11:44:08.894Z,7.67
2018-08-09T11:46:37.057Z,14.67
2018-08-09T11:49:05.338Z,4.53
2018-08-09T11:51:33.569Z,4.60
2018-08-09T11:54:01.685Z,5.80
2018-08-09T11:56:29.931Z,8.47
2018-08-09T11:58:58.133Z,5.27
2018-08-09T12:01:26.441Z,7.97
2018-08-09T12:03:54.497Z,5.57
2018-08-09T12:06:22.864Z,4.33
2018-08-09T12:08:51.026Z,6.60
2018-08-09T12:11:19.224Z,5.40
2018-08-09T12:13:47.473Z,4.10
2018-08-09T12:16:15.762Z,4.33
2018-08-09T12:18:44.133Z,7.10
2018-08-09T12:21:12.102Z,9.80
2018-08-09T12:23:40.522Z,6.37
2018-08-09T12:26:08.862Z,3.33
2018-08-09T12:28:36.914Z,4.60
2018-08-09T12:31:04.722Z,4.13
2018-08-09T12:33:32.534Z,7.57
2018-08-09T12:36:00.572Z,3.47
2018-08-09T12:38:28.397Z,4.50
2018-08-09T12:40:56.150Z,3.10
2018-08-09T12:43:23.970Z,4.97
2018-08-09T12:45:51.858Z,4.83
2018-08-09T12:48:19.661Z,3.57
2018-08-09T12:50:47.725Z,4.60
2018-08-09T12:53:15.997Z,4.53
2018-08-09T12:55:43.793Z,3.30
2018-08-09T12:58:12.148Z,3.83
2018-08-09T13:00:39.921Z,3.33
2018-08-09T13:03:08.035Z,2.43
2018-08-09T13:05:35.836Z,2.47
2018-08-09T13:08:03.751Z,4.73
2018-08-09T13:10:31.503Z,2.80
2018-08-09T13:12:59.294Z,3.50
2018-08-09T13:15:27.059Z,4.50
2018-08-09T13:17:55.364Z,4.60
2018-08-09T13:20:23.542Z,5.07
2018-08-09T13:22:51.821Z,3.00
2018-08-09T13:25:20.089Z,4.97
2018-08-09T13:27:48.474Z,5.37
2018-08-09T13:30:17.106Z,5.70
2018-08-09T13:32:45.431Z,3.60
2018-08-09T13:35:13.710Z,5.37
2018-08-09T13:37:42.226Z,3.90
2018-08-09T13:40:10.774Z,5.80
2018-08-09T13:42:39.708Z,3.17
2018-08-09T13:45:09.825Z,7.87
2018-08-09T13:47:38.312Z,4.43
2018-08-09T13:50:07.727Z,3.27
2018-08-09T13:52:36.055Z,3.07
2018-08-09T13:55:04.777Z,3.17
2018-08-09T13:57:32.998Z,5.60
2018-08-09T14:00:01.383Z,3.63
2018-08-09T14:02:29.760Z,3.23
2018-08-09T14:04:57.991Z,5.30
2018-08-09T14:07:26.189Z,4.13
2018-08-09T14:09:54.373Z,6.40
2018-08-09T14:12:22.758Z,4.17
2018-08-09T14:14:51.034Z,3.07
2018-08-09T14:17:19.413Z,3.07
2018-08-09T14:19:47.681Z,4.03
2018-08-09T14:22:16.066Z,2.63
2018-08-09T14:24:44.422Z,3.67
2018-08-09T14:27:12.403Z,7.53
2018-08-09T14:29:40.789Z,3.97
2018-08-09T14:32:09.957Z,4.03
2018-08-09T14:34:38.057Z,2.73
2018-08-09T14:37:06.633Z,4.87
2018-08-09T14:39:34.814Z,6.87
2018-08-09T14:42:03.321Z,2.63
2018-08-09T14:44:31.465Z,5.27
2018-08-09T14:46:59.833Z,3.53
2018-08-09T14:49:28.109Z,5.93
2018-08-09T14:51:56.394Z,3.07
2018-08-09T14:54:24.664Z,5.10
2018-08-09T14:56:52.941Z,6.17
2018-08-09T14:59:21.222Z,3.53
2018-08-09T15:01:49.297Z,3.67
2018-08-09T15:04:17.364Z,3.17
2018-08-09T15:06:45.630Z,3.60
2018-08-09T15:09:14.018Z,5.20
2018-08-09T15:11:42.190Z,5.43
2018-08-09T15:14:10.698Z,5.40
2018-08-09T15:16:38.938Z,6.17
2018-08-09T15:19:06.985Z,4.63
2018-08-09T15:21:35.285Z,3.70
2018-08-09T15:24:03.567Z,5.17
2018-08-09T15:26:31.531Z,3.97
2018-08-09T15:28:59.915Z,4.87
2018-08-09T15:31:28.083Z,4.03
2018-08-09T15:33:55.851Z,4.30
2018-08-09T15:36:24.227Z,5.73
2018-08-09T15:38:52.497Z,7.33
2018-08-09T15:41:20.783Z,4.90
2018-08-09T15:43:49.162Z,3.43
2018-08-09T15:46:17.421Z,4.77
2018-08-09T15:48:45.710Z,3.40
2018-08-09T15:51:13.976Z,5.60
2018-08-09T15:53:42.053Z,4.37
2018-08-09T15:56:10.426Z,5.90
2018-08-09T15:58:38.707Z,4.03
2018-08-09T16:01:07.088Z,5.40
2018-08-09T16:03:35.353Z,8.80
2018-08-09T16:06:03.747Z,5.83
2018-08-09T16:08:32.047Z,5.33
2018-08-09T16:11:00.180Z,4.37
2018-08-09T16:13:28.570Z,7.03
2018-08-09T16:15:56.909Z,3.40
2018-08-09T16:18:25.210Z,6.17
2018-08-09T16:20:53.484Z,13.57
2018-08-09T16:23:21.671Z,12.83
2018-08-09T16:25:50.050Z,10.77
2018-08-09T16:28:18.219Z,8.17
2018-08-09T16:30:46.495Z,8.23
2018-08-09T16:33:14.862Z,9.97
2018-08-09T16:35:43.277Z,8.40
2018-08-09T16:38:11.524Z,4.27
2018-08-09T16:40:39.902Z,9.73
2018-08-09T16:43:08.073Z,6.87
2018-08-09T16:45:36.256Z,10.67
2018-08-09T16:48:04.422Z,8.33
2018-08-09T16:50:32.329Z,8.63
2018-08-09T16:53:00.461Z,6.77
2018-08-09T16:55:28.829Z,9.27
2018-08-09T16:57:57.127Z,6.03
2018-08-09T17:00:25.408Z,6.87
2018-08-09T17:02:54.317Z,5.57
2018-08-09T17:05:24.540Z,5.27
2018-08-09T17:07:52.453Z,7.70
2018-08-09T17:10:22.428Z,8.60
2018-08-09T17:12:50.314Z,6.23
2018-08-09T17:15:21.480Z,5.60
2018-08-09T17:17:49.550Z,6.43
2018-08-09T17:20:21.678Z,8.23
2018-08-09T17:22:49.582Z,8.73
2018-08-09T17:25:17.802Z,7.50
2018-08-09T17:27:46.564Z,6.27
2018-08-09T17:30:15.821Z,8.20
2018-08-09T17:32:44.137Z,8.97
2018-08-09T17:35:13.489Z,6.97
2018-08-09T17:37:41.573Z,7.97
2018-08-09T17:40:17.453Z,8.77
2018-08-09T17:42:45.937Z,9.13
2018-08-09T17:45:14.418Z,7.80
2018-08-09T17:47:42.950Z,7.40
2018-08-09T17:50:11.041Z,7.27
2018-08-09T17:52:39.337Z,4.97
2018-08-09T17:55:09.830Z,7.57
2018-08-09T17:57:37.954Z,7.93
2018-08-09T18:00:08.661Z,8.23
2018-08-09T18:02:37.162Z,6.33
2018-08-09T18:05:06.389Z,4.80
2018-08-09T18:07:34.795Z,7.00
2018-08-09T18:10:03.105Z,5.23
2018-08-09T18:12:31.020Z,4.13
2018-08-09T18:14:59.255Z,4.77
2018-08-09T18:17:27.531Z,4.10
2018-08-09T18:19:55.905Z,7.10
2018-08-09T18:22:24.173Z,7.40
2018-08-09T18:24:52.457Z,5.33
2018-08-09T18:27:20.762Z,5.93
2018-08-09T18:29:49.122Z,6.00
2018-08-09T18:32:17.391Z,7.33
2018-08-09T18:34:45.765Z,6.20
2018-08-09T18:37:14.146Z,9.47
2018-08-09T18:39:42.522Z,8.13
2018-08-09T18:42:10.793Z,9.20
2018-08-09T18:44:39.074Z,6.73
2018-08-09T18:47:07.341Z,6.03
2018-08-09T18:49:35.671Z,6.23
2018-08-09T18:52:03.507Z,8.70
2018-08-09T18:54:31.858Z,6.03
2018-08-09T18:57:00.030Z,5.33
2018-08-09T18:59:27.938Z,5.50
2018-08-09T19:01:56.200Z,6.57
2018-08-09T19:04:24.358Z,10.93
2018-08-09T19:06:52.342Z,4.30
2018-08-09T19:09:20.690Z,5.13
2018-08-09T19:11:48.769Z,7.83
2018-08-09T19:14:16.946Z,4.70
2018-08-09T19:16:45.119Z,6.13
2018-08-09T19:19:13.273Z,5.37
2018-08-09T19:21:41.455Z,5.13
2018-08-09T19:24:09.844Z,5.47
2018-08-09T19:26:38.122Z,5.23
2018-08-09T19:29:06.282Z,4.40
2018-08-09T19:31:34.566Z,6.47
2018-08-09T19:34:02.842Z,6.60
2018-08-09T19:36:31.109Z,4.17
2018-08-09T19:38:59.357Z,6.33
2018-08-09T19:41:27.455Z,5.30
2018-08-09T19:43:55.730Z,4.07
2018-08-09T19:46:24.113Z,5.33
2018-08-09T19:48:52.481Z,9.77
2018-08-09T19:51:20.761Z,5.43
2018-08-09T19:53:48.596Z,4.33
2018-08-09T19:56:16.901Z,5.30
2018-08-09T19:58:45.082Z,5.60
2018-08-09T20:01:13.450Z,7.00
2018-08-09T20:03:41.530Z,6.20
2018-08-09T20:06:09.823Z,5.07
2018-08-09T20:08:38.082Z,13.30
2018-08-09T20:11:06.463Z,7.63
2018-08-09T20:13:34.743Z,3.93
2018-08-09T20:16:02.866Z,4.20
2018-08-09T20:18:31.286Z,4.93
2018-08-09T20:20:59.553Z,7.20
2018-08-09T20:23:27.725Z,7.17
2018-08-09T20:25:56.014Z,7.47
2018-08-09T20:28:24.285Z,6.83
2018-08-09T20:30:52.553Z,6.73
2018-08-09T20:33:20.425Z,5.53
2018-08-09T20:35:48.809Z,5.67
2018-08-09T20:38:16.982Z,5.43
2018-08-09T20:40:44.750Z,3.67
2018-08-09T20:43:13.026Z,4.77
2018-08-09T20:45:41.094Z,5.67
2018-08-09T20:48:09.466Z,5.33
2018-08-09T20:50:37.630Z,5.97
2018-08-09T20:53:06.020Z,6.40
2018-08-09T20:55:34.234Z,4.40
2018-08-09T20:58:02.366Z,5.90
2018-08-09T21:00:31.969Z,3.37
2018-08-09T21:03:00.807Z,4.37
2018-08-09T21:05:31.238Z,6.03
2018-08-09T21:07:59.565Z,4.30
2018-08-09T21:10:28.090Z,6.30
2018-08-09T21:12:56.205Z,4.23
2018-08-09T21:15:24.451Z,2.63
2018-08-09T21:17:52.760Z,4.77
2018-08-09T21:20:21.022Z,4.67
2018-08-09T21:22:49.773Z,6.90
2018-08-09T21:25:18.205Z,6.97
2018-08-09T21:27:46.949Z,3.30
2018-08-09T21:30:16.681Z,7.77
2018-08-09T21:32:45.429Z,4.63
2018-08-09T21:35:13.663Z,7.33
2018-08-09T21:37:42.341Z,6.00
2018-08-09T21:40:11.393Z,6.00
2018-08-09T21:42:39.816Z,5.83
2018-08-09T21:45:15.623Z,3.93
2018-08-09T21:47:43.844Z,4.40
2018-08-09T21:50:13.891Z,4.23
2018-08-09T21:52:42.333Z,6.93
2018-08-09T21:55:11.281Z,6.53
2018-08-09T21:57:39.497Z,5.17
2018-08-09T22:00:14.498Z,8.00
2018-08-09T22:02:42.819Z,7.53
2018-08-09T22:05:16.417Z,4.53
2018-08-09T22:07:49.973Z,6.80
2018-08-09T22:10:23.374Z,4.83
2018-08-09T22:12:56.882Z,6.40
2018-08-09T22:15:30.542Z,6.00
2018-08-09T22:18:04.344Z,4.83
2018-08-09T22:20:37.806Z,4.90
2018-08-09T22:23:05.985Z,4.57
2018-08-09T22:25:34.253Z,4.27
2018-08-09T22:28:02.421Z,7.73
2018-08-09T22:30:30.206Z,6.30
2018-08-09T22:32:58.365Z,8.07
2018-08-09T22:35:26.654Z,4.67
2018-08-09T22:37:54.825Z,4.90
2018-08-09T22:40:23.181Z,8.03
2018-08-09T22:42:51.377Z,3.43
2018-08-09T22:45:19.646Z,4.17
2018-08-09T22:47:48.025Z,4.77
2018-08-09T22:50:16.289Z,4.80
2018-08-09T22:52:44.576Z,6.07
2018-08-09T22:55:12.852Z,6.13
2018-08-09T22:57:41.216Z,4.03
2018-08-09T23:00:22.501Z,4.00
2018-08-09T23:02:51.135Z,5.53
2018-08-09T23:05:19.944Z,4.93
2018-08-09T23:07:48.259Z,5.33
2018-08-09T23:10:16.429Z,3.70
2018-08-09T23:12:44.631Z,6.77
2018-08-09T23:15:12.879Z,4.73
2018-08-09T23:17:41.089Z,6.73
2018-08-09T23:20:09.531Z,3.60
2018-08-09T23:22:37.662Z,5.97
2018-08-09T23:25:09.257Z,6.40
2018-08-09T23:27:37.525Z,5.67
2018-08-09T23:30:07.033Z,4.17
2018-08-09T23:32:35.568Z,5.47
2018-08-09T23:35:04.640Z,5.00
2018-08-09T23:37:32.891Z,5.50
2018-08-09T23:40:01.171Z,4.63
2018-08-09T23:42:29.310Z,5.03
2018-08-09T23:44:57.507Z,6.27
2018-08-09T23:47:25.778Z,4.67
2018-08-09T23:49:53.957Z,6.60
2018-08-09T23:52:22.126Z,6.20
2018-08-09T23:54:50.297Z,4.43
2018-08-09T23:57:18.673Z,8.17
2018-08-09T23:59:46.836Z,6.53
